Time;durP1;ratioP1;P1;durP2;ratioP2;P2;SDS_P1;SDS_P2;PMS_P1;PMS_P2;Temp;Humidity;BMP_temperature;BMP_pressure;BME280_temperature;BME280_humidity;BME280_pressure;Samples;Min_cycle;Max_cycle;Signal;HPM_P1;HPM_P2
2022/10/06 00:01:57;;;;;;;6.50;2.17;;;16.30;1.00;;;;;;5088422;28;20514;-56
2022/10/06 00:04:23;;;;;;;7.30;2.20;;;16.40;1.00;;;;;;5088836;28;20411;-56
2022/10/06 00:06:49;;;;;;;6.77;2.03;;;16.30;1.00;;;;;;5088633;28;20376;-59
2022/10/06 00:09:15;;;;;;;5.70;2.00;;;16.30;1.00;;;;;;5089451;28;20382;-56
2022/10/06 00:11:41;;;;;;;7.23;2.20;;;16.20;1.00;;;;;;5088238;28;20736;-57
2022/10/06 00:14:06;;;;;;;11.50;2.50;;;16.20;1.00;;;;;;5089563;28;20437;-56
2022/10/06 00:16:32;;;;;;;7.70;2.70;;;16.20;1.00;;;;;;5089308;28;20417;-57
2022/10/06 00:18:57;;;;;;;7.20;2.40;;;16.20;1.00;;;;;;5088699;28;20761;-56
2022/10/06 00:21:23;;;;;;;7.70;2.20;;;16.10;1.00;;;;;;5090648;28;20378;-56
2022/10/06 00:23:49;;;;;;;6.80;2.53;;;16.00;1.20;;;;;;5091638;28;20857;-57
2022/10/06 00:26:15;;;;;;;6.50;2.40;;;16.00;17.30;;;;;;5092950;28;20380;-56
2022/10/06 00:28:50;;;;;;;6.07;2.20;;;16.00;57.90;;;;;;5092085;28;20412;-57
2022/10/06 00:31:18;;;;;;;6.20;2.30;;;15.90;99.90;;;;;;5089464;28;20450;-57
2022/10/06 00:33:44;;;;;;;7.18;2.97;;;15.90;99.90;;;;;;5091467;28;20866;-57
2022/10/06 00:36:10;;;;;;;8.45;2.50;;;15.80;99.90;;;;;;5091954;28;20427;-55
2022/10/06 00:38:36;;;;;;;8.27;2.30;;;15.80;1.00;;;;;;5092072;28;20386;-55
2022/10/06 00:41:02;;;;;;;7.30;2.30;;;15.70;99.90;;;;;;5091308;28;20390;-55
2022/10/06 00:43:48;;;;;;;8.90;2.40;;;15.60;99.90;;;;;;5092331;28;20858;-56
2022/10/06 00:46:15;;;;;;;6.40;2.15;;;15.40;1.00;;;;;;5089764;28;20872;-56
2022/10/06 00:48:43;;;;;;;6.77;2.70;;;15.30;1.00;;;;;;5092195;28;20382;-56
2022/10/06 00:51:09;;;;;;;7.10;2.87;;;15.20;99.90;;;;;;5092073;28;20421;-56
2022/10/06 00:53:35;;;;;;;6.47;2.42;;;15.10;1.00;;;;;;5091992;28;20800;-56
2022/10/06 00:56:00;;;;;;;6.80;2.30;;;15.00;1.00;;;;;;5091053;28;20410;-56
2022/10/06 00:58:26;;;;;;;7.10;2.57;;;14.90;99.90;;;;;;5091940;28;20423;-56
2022/10/06 01:00:53;;;;;;;6.47;1.92;;;14.90;1.00;;;;;;5091062;28;20739;-56
2022/10/06 01:03:32;;;;;;;8.00;2.55;;;14.80;99.90;;;;;;5091848;28;20473;-56
2022/10/06 01:06:00;;;;;;;7.05;2.30;;;14.80;99.90;;;;;;5088774;28;20464;-56
2022/10/06 01:08:27;;;;;;;7.60;2.70;;;14.80;99.90;;;;;;5091672;28;20377;-55
2022/10/06 01:10:53;;;;;;;6.43;2.20;;;14.80;99.90;;;;;;5090863;28;20378;-55
2022/10/06 01:13:19;;;;;;;8.88;2.47;;;14.70;1.00;;;;;;5091385;28;20397;-55
2022/10/06 01:16:10;;;;;;;6.65;2.60;;;14.90;99.90;;;;;;5091140;28;20402;-55
2022/10/06 01:18:38;;;;;;;6.20;2.47;;;14.90;94.60;;;;;;5089241;28;20466;-55
2022/10/06 01:21:12;;;;;;;6.80;2.80;;;14.90;33.70;;;;;;5090398;28;20480;-55
2022/10/06 01:23:38;;;;;;;6.57;2.20;;;14.80;99.90;;;;;;5089047;28;20489;-55
2022/10/06 01:26:08;;;;;;;6.88;2.70;;;14.80;73.60;;;;;;5091037;28;20487;-55
2022/10/06 01:28:34;;;;;;;7.43;2.40;;;14.80;40.20;;;;;;5091370;28;20781;-55
2022/10/06 01:31:01;;;;;;;7.50;2.30;;;14.80;99.90;;;;;;5090729;28;20490;-55
2022/10/06 01:33:28;;;;;;;8.68;2.67;;;14.70;99.90;;;;;;5090254;28;20433;-55
2022/10/06 01:35:55;;;;;;;8.82;2.70;;;14.70;1.00;;;;;;5087357;28;20413;-55
2022/10/06 01:38:20;;;;;;;8.60;2.70;;;14.60;1.00;;;;;;5091582;28;20409;-55
2022/10/06 01:40:47;;;;;;;7.53;2.97;;;14.50;1.00;;;;;;5090534;28;20416;-55
2022/10/06 01:43:12;;;;;;;7.15;2.60;;;14.50;99.90;;;;;;5090713;28;20386;-55
2022/10/06 01:45:38;;;;;;;6.43;2.40;;;14.50;92.30;;;;;;5091197;28;20488;-55
2022/10/06 01:48:04;;;;;;;6.22;2.40;;;14.60;90.90;;;;;;5089922;28;20954;-55
2022/10/06 01:50:30;;;;;;;6.30;2.55;;;14.60;15.50;;;;;;5090698;28;20378;-55
2022/10/06 01:52:56;;;;;;;8.97;2.80;;;14.80;1.00;;;;;;5090010;28;20374;-55
2022/10/06 01:55:23;;;;;;;6.50;2.50;;;14.80;99.90;;;;;;5090494;28;20872;-55
2022/10/06 01:57:48;;;;;;;9.65;3.10;;;14.90;99.90;;;;;;5090070;28;20378;-56
2022/10/06 02:00:14;;;;;;;6.60;2.50;;;15.00;1.00;;;;;;5090537;28;20705;-55
2022/10/06 02:02:40;;;;;;;6.13;2.25;;;15.00;99.90;;;;;;5090472;28;20374;-55
2022/10/06 02:05:06;;;;;;;8.73;2.53;;;15.10;99.90;;;;;;5090030;28;20382;-55
2022/10/06 02:07:34;;;;;;;6.10;2.30;;;15.00;56.90;;;;;;5090424;28;20389;-55
2022/10/06 02:10:00;;;;;;;7.13;2.47;;;15.10;99.90;;;;;;5089951;28;20374;-55
2022/10/06 02:12:26;;;;;;;8.10;2.70;;;15.10;1.00;;;;;;5090360;28;20518;-55
2022/10/06 02:14:51;;;;;;;7.25;2.42;;;15.10;1.00;;;;;;5089223;28;20433;-55
2022/10/06 02:17:17;;;;;;;7.65;2.70;;;15.00;1.00;;;;;;5089961;28;20394;-55
2022/10/06 02:19:42;;;;;;;7.10;2.60;;;15.00;99.90;;;;;;5089795;28;20371;-55
2022/10/06 02:22:08;;;;;;;8.70;2.50;;;14.20;1.00;;;;;;5089722;28;20882;-55
2022/10/06 02:24:34;;;;;;;10.80;2.70;;;14.90;99.90;;;;;;5089905;28;20410;-55
2022/10/06 02:26:59;;;;;;;7.00;2.87;;;14.90;99.90;;;;;;5089228;28;20405;-55
2022/10/06 02:29:25;;;;;;;6.72;2.60;;;14.90;1.00;;;;;;5090772;28;20453;-55
2022/10/06 02:31:51;;;;;;;8.90;2.90;;;14.90;1.00;;;;;;5088885;28;20406;-55
2022/10/06 02:34:16;;;;;;;8.63;2.80;;;15.00;99.90;;;;;;5089927;28;20822;-56
2022/10/06 02:36:42;;;;;;;8.00;3.20;;;14.90;99.90;;;;;;5089751;28;20429;-55
2022/10/06 02:39:07;;;;;;;7.90;2.50;;;14.90;99.90;;;;;;5089551;28;20472;-55
2022/10/06 02:41:33;;;;;;;7.47;2.60;;;14.90;99.90;;;;;;5089824;28;20740;-55
2022/10/06 02:43:59;;;;;;;8.20;3.10;;;14.90;1.00;;;;;;5089248;28;20856;-56
2022/10/06 02:46:24;;;;;;;6.70;2.90;;;14.80;1.00;;;;;;5089838;28;20799;-55
2022/10/06 02:48:52;;;;;;;10.00;2.92;;;14.80;99.90;;;;;;5089320;28;20413;-55
2022/10/06 02:51:21;;;;;;;8.38;2.83;;;14.70;1.00;;;;;;5089414;28;20735;-55
2022/10/06 02:53:48;;;;;;;8.63;2.83;;;14.70;1.00;;;;;;5088923;28;20377;-56
2022/10/06 02:56:19;;;;;;;7.65;2.72;;;14.70;1.00;;;;;;5089357;28;20489;-55
2022/10/06 02:58:46;;;;;;;7.78;3.15;;;14.80;1.00;;;;;;5089289;28;20518;-56
2022/10/06 03:01:18;;;;;;;7.15;2.70;;;14.70;1.00;;;;;;5089612;28;20394;-55
2022/10/06 03:03:45;;;;;;;9.77;3.50;;;14.70;1.00;;;;;;5089515;28;20378;-55
2022/10/06 03:06:23;;;;;;;7.05;2.70;;;14.50;1.00;;;;;;5089210;28;20378;-55
2022/10/06 03:08:56;;;;;;;8.30;2.65;;;14.60;99.90;;;;;;5088584;28;20374;-56
2022/10/06 03:11:27;;;;;;;9.48;3.20;;;14.50;99.90;;;;;;5087474;28;20858;-55
2022/10/06 03:13:53;;;;;;;6.78;2.78;;;14.30;99.90;;;;;;5088841;28;20379;-55
2022/10/06 03:16:31;;;;;;;7.97;3.00;;;14.30;99.90;;;;;;5089457;28;20459;-55
2022/10/06 03:18:57;;;;;;;7.65;3.20;;;14.30;99.90;;;;;;5089161;28;20371;-55
2022/10/06 03:21:28;;;;;;;8.38;2.85;;;14.20;99.90;;;;;;5096378;28;20747;-55
2022/10/06 03:23:56;;;;;;;9.38;3.53;;;14.30;99.90;;;;;;5088493;28;20381;-55
2022/10/06 03:26:26;;;;;;;9.52;2.97;;;14.20;99.90;;;;;;5089152;28;20382;-55
2022/10/06 03:28:51;;;;;;;8.38;3.13;;;14.10;1.00;;;;;;5088292;28;20473;-55
2022/10/06 03:31:17;;;;;;;7.23;3.00;;;14.30;99.90;;;;;;5088665;28;20575;-56
2022/10/06 03:33:43;;;;;;;7.43;2.57;;;14.20;99.90;;;;;;5089360;28;20382;-55
2022/10/06 03:36:17;;;;;;;9.05;3.00;;;14.30;1.00;;;;;;5087460;28;20398;-56
2022/10/06 03:38:43;;;;;;;5.90;2.58;;;14.40;99.90;;;;;;5086511;28;20392;-56
2022/10/06 03:41:13;;;;;;;6.93;2.73;;;14.60;99.90;;;;;;5088724;28;20723;-55
2022/10/06 03:43:41;;;;;;;7.35;3.00;;;14.70;99.90;;;;;;5086476;28;20483;-55
2022/10/06 03:46:06;;;;;;;8.03;3.20;;;14.90;99.90;;;;;;5088110;28;20370;-55
2022/10/06 03:48:34;;;;;;;8.80;2.80;;;15.00;99.90;;;;;;5088523;28;20453;-55
2022/10/06 03:51:00;;;;;;;11.38;2.95;;;15.10;74.10;;;;;;5088116;28;20423;-55
2022/10/06 03:53:28;;;;;;;7.10;2.95;;;15.20;99.90;;;;;;5088918;28;20398;-55
2022/10/06 03:56:10;;;;;;;8.30;2.97;;;15.20;99.90;;;;;;5088760;28;20406;-56
2022/10/06 03:58:38;;;;;;;8.25;3.00;;;15.20;99.90;;;;;;5090146;28;20393;-55
2022/10/06 04:01:08;;;;;;;7.97;3.50;;;15.20;99.90;;;;;;5092234;28;20998;-55
2022/10/06 04:03:35;;;;;;;10.95;3.95;;;15.40;99.90;;;;;;5093051;28;20378;-55
2022/10/06 04:06:04;;;;;;;8.13;3.08;;;15.50;99.90;;;;;;5092410;28;20385;-55
2022/10/06 04:08:31;;;;;;;8.55;3.33;;;15.60;99.90;;;;;;5092854;28;20386;-55
2022/10/06 04:11:15;;;;;;;9.13;3.80;;;15.70;99.90;;;;;;5089890;28;20495;-56
2022/10/06 04:13:42;;;;;;;7.97;3.53;;;15.80;99.90;;;;;;5084547;28;20471;-56
2022/10/06 04:16:13;;;;;;;8.52;3.05;;;15.90;99.90;;;;;;5086568;28;20409;-56
2022/10/06 04:18:40;;;;;;;7.63;3.43;;;16.10;99.90;;;;;;5092730;28;20386;-56
2022/10/06 04:21:06;;;;;;;9.73;3.50;;;16.10;99.90;;;;;;5091882;28;20847;-56
2022/10/06 04:23:32;;;;;;;9.20;3.40;;;16.10;99.90;;;;;;5092481;28;20451;-55
2022/10/06 04:26:00;;;;;;;7.35;3.35;;;16.00;1.00;;;;;;5091711;28;20385;-55
2022/10/06 04:28:25;;;;;;;11.00;3.92;;;16.10;1.00;;;;;;5092499;28;20397;-55
2022/10/06 04:30:59;;;;;;;8.20;3.33;;;16.10;1.00;;;;;;5091303;28;20406;-55
2022/10/06 04:33:24;;;;;;;8.02;3.60;;;16.00;1.00;;;;;;5092203;28;20409;-55
2022/10/06 04:35:58;;;;;;;10.93;3.90;;;16.00;1.00;;;;;;5082809;28;20467;-56
2022/10/06 04:38:24;;;;;;;9.07;3.43;;;16.00;1.00;;;;;;5072575;28;20396;-55
2022/10/06 04:40:50;;;;;;;10.00;3.60;;;15.90;1.00;;;;;;5071511;28;20416;-56
2022/10/06 04:43:15;;;;;;;8.75;3.40;;;15.90;1.00;;;;;;5083252;28;20432;-55
2022/10/06 04:45:41;;;;;;;8.60;3.70;;;15.90;1.00;;;;;;5092142;28;20389;-55
2022/10/06 04:48:07;;;;;;;12.30;3.70;;;16.00;1.00;;;;;;5091065;28;21050;-55
2022/10/06 04:50:32;;;;;;;9.50;3.40;;;16.00;1.00;;;;;;5090921;28;20477;-55
2022/10/06 04:52:58;;;;;;;9.98;3.70;;;16.10;1.00;;;;;;5077304;28;20391;-55
2022/10/06 04:55:23;;;;;;;8.23;3.60;;;16.10;1.00;;;;;;5075901;28;20402;-55
2022/10/06 04:57:49;;;;;;;8.10;3.50;;;16.10;1.00;;;;;;5091427;28;20386;-55
2022/10/06 05:00:24;;;;;;;9.50;3.50;;;16.10;1.00;;;;;;5091419;28;20405;-56
2022/10/06 05:02:54;;;;;;;10.60;3.60;;;16.10;1.00;;;;;;5089716;28;20831;-56
2022/10/06 05:05:20;;;;;;;9.45;3.70;;;16.10;99.90;;;;;;5090483;28;20401;-55
2022/10/06 05:07:46;;;;;;;9.50;3.60;;;16.10;99.90;;;;;;5090223;28;20859;-55
2022/10/06 05:10:11;;;;;;;7.33;3.53;;;16.10;99.90;;;;;;5090961;28;20802;-55
2022/10/06 05:12:37;;;;;;;9.88;3.60;;;15.90;99.90;;;;;;5091215;28;20814;-55
2022/10/06 05:15:03;;;;;;;10.90;3.80;;;16.00;99.90;;;;;;5090911;28;20747;-55
2022/10/06 05:17:28;;;;;;;7.22;3.30;;;16.00;99.90;;;;;;5091248;28;20454;-55
2022/10/06 05:19:54;;;;;;;12.27;3.70;;;15.90;1.00;;;;;;5090643;28;20420;-55
2022/10/06 05:22:20;;;;;;;7.93;3.40;;;15.90;1.00;;;;;;5091346;28;20405;-55
2022/10/06 05:24:45;;;;;;;8.20;3.40;;;15.80;1.00;;;;;;5091539;28;20401;-55
2022/10/06 05:27:12;;;;;;;9.45;4.07;;;15.80;1.00;;;;;;5090792;28;20401;-55
2022/10/06 05:29:38;;;;;;;8.88;4.60;;;15.80;1.00;;;;;;5091636;28;20378;-55
2022/10/06 05:32:03;;;;;;;8.63;3.13;;;15.80;1.00;;;;;;5088984;28;20439;-55
2022/10/06 05:34:29;;;;;;;10.10;3.92;;;15.80;1.00;;;;;;5090819;28;20382;-55
2022/10/06 05:36:55;;;;;;;11.80;3.90;;;15.80;1.00;;;;;;5089498;28;20378;-55
2022/10/06 05:39:20;;;;;;;12.00;4.10;;;15.90;1.00;;;;;;5088702;28;20396;-55
2022/10/06 05:41:46;;;;;;;7.72;3.40;;;15.90;1.00;;;;;;5072904;28;20705;-55
2022/10/06 05:44:12;;;;;;;9.15;3.90;;;15.90;1.00;;;;;;5090649;28;20520;-55
2022/10/06 05:46:37;;;;;;;11.20;4.10;;;16.00;1.00;;;;;;5091105;28;20701;-55
2022/10/06 05:49:09;;;;;;;10.60;4.50;;;15.90;1.00;;;;;;5089912;28;20454;-55
2022/10/06 05:51:35;;;;;;;9.43;3.78;;;16.00;1.00;;;;;;5091024;28;20467;-55
2022/10/06 05:54:02;;;;;;;8.70;3.90;;;16.10;1.00;;;;;;5090207;28;20863;-57
2022/10/06 05:56:32;;;;;;;13.40;4.40;;;16.20;1.00;;;;;;5090919;28;20871;-55
2022/10/06 05:58:59;;;;;;;9.60;3.70;;;16.20;1.00;;;;;;5089857;28;20410;-56
2022/10/06 06:01:27;;;;;;;9.98;3.78;;;16.50;1.00;;;;;;5083563;28;20444;-56
2022/10/06 06:03:56;;;;;;;9.55;4.05;;;16.30;1.00;;;;;;5086880;28;20402;-56
2022/10/06 06:06:21;;;;;;;7.80;3.70;;;16.40;1.00;;;;;;5085200;28;20405;-56
2022/10/06 06:08:52;;;;;;;9.25;4.28;;;16.40;1.00;;;;;;5090583;28;20400;-56
2022/10/06 06:11:17;;;;;;;8.73;3.92;;;16.50;1.00;;;;;;5089232;28;20893;-56
2022/10/06 06:13:43;;;;;;;10.95;3.80;;;16.50;1.00;;;;;;5088220;28;20398;-56
2022/10/06 06:16:13;;;;;;;9.63;4.00;;;16.50;1.00;;;;;;5089821;28;20466;-56
2022/10/06 06:18:39;;;;;;;12.90;3.60;;;16.50;1.00;;;;;;5090270;28;20366;-56
2022/10/06 06:21:07;;;;;;;10.90;3.90;;;16.60;1.00;;;;;;5089189;28;20377;-56
2022/10/06 06:23:39;;;;;;;7.90;4.20;;;16.60;1.00;;;;;;5090745;28;20390;-56
2022/10/06 06:26:10;;;;;;;12.13;4.27;;;16.70;1.00;;;;;;5087508;28;20934;-56
2022/10/06 06:28:36;;;;;;;12.82;4.20;;;16.70;1.00;;;;;;5071670;28;20842;-56
2022/10/06 06:31:08;;;;;;;9.75;4.10;;;16.80;1.00;;;;;;5086604;28;20402;-56
2022/10/06 06:33:36;;;;;;;9.23;3.70;;;16.70;1.00;;;;;;5087899;28;20390;-56
2022/10/06 06:36:23;;;;;;;11.63;4.30;;;16.70;1.00;;;;;;5088807;28;21230;-56
2022/10/06 06:38:51;;;;;;;10.20;4.50;;;16.70;1.00;;;;;;5079503;28;20410;-56
2022/10/06 06:41:18;;;;;;;9.93;4.10;;;16.80;1.00;;;;;;5081169;28;20398;-56
2022/10/06 06:43:44;;;;;;;11.75;4.50;;;16.90;1.00;;;;;;5089412;28;20872;-56
2022/10/06 06:46:11;;;;;;;8.60;4.00;;;16.90;1.00;;;;;;5089319;28;20469;-56
2022/10/06 06:48:36;;;;;;;7.68;3.97;;;16.80;1.00;;;;;;5090314;28;20483;-56
2022/10/06 06:51:03;;;;;;;8.18;3.80;;;16.70;1.00;;;;;;5086410;28;20875;-56
2022/10/06 06:53:30;;;;;;;10.25;4.22;;;16.70;1.00;;;;;;5083607;28;20394;-56
2022/10/06 06:55:56;;;;;;;11.30;3.90;;;16.80;1.00;;;;;;5082973;28;20417;-56
2022/10/06 06:58:22;;;;;;;10.00;3.60;;;16.80;1.00;;;;;;5088991;28;20386;-55
2022/10/06 07:00:48;;;;;;;9.95;4.50;;;16.90;1.00;;;;;;5083160;28;21001;-56
2022/10/06 07:03:16;;;;;;;13.67;4.13;;;17.00;1.00;;;;;;5086219;28;20382;-56
2022/10/06 07:05:44;;;;;;;10.48;3.90;;;16.90;1.00;;;;;;5088116;28;20405;-56
2022/10/06 07:08:10;;;;;;;9.90;3.30;;;16.80;1.00;;;;;;5088572;28;20596;-56
2022/10/06 07:10:36;;;;;;;9.25;3.30;;;16.70;1.00;;;;;;5089199;28;20735;-56
2022/10/06 07:13:03;;;;;;;8.40;3.80;;;16.60;1.00;;;;;;5088242;28;20382;-56
2022/10/06 07:26:29;;;;;;;8.07;3.25;;;16.70;1.00;;;;;;5087685;28;20425;-56
2022/10/06 07:28:59;;;;;;;8.60;3.35;;;16.80;1.00;;;;;;5108973;28;20380;-56
2022/10/06 07:31:32;;;;;;;9.70;3.50;;;16.80;1.00;;;;;;5111137;28;20403;-56
2022/10/06 07:34:03;;;;;;;7.95;3.40;;;16.70;1.00;;;;;;5113255;28;20525;-55
2022/10/06 07:36:30;;;;;;;7.10;2.80;;;16.70;1.00;;;;;;5113845;28;20396;-56
2022/10/06 07:38:56;;;;;;;7.50;3.03;;;16.80;1.00;;;;;;5095197;28;20445;-56
2022/10/06 07:41:22;;;;;;;9.43;3.17;;;16.80;1.00;;;;;;5095732;28;20372;-56
2022/10/06 07:43:48;;;;;;;10.10;3.20;;;16.80;1.00;;;;;;5113708;28;20394;-56
2022/10/06 07:46:14;;;;;;;7.97;3.00;;;16.90;1.00;;;;;;5113324;28;20368;-55
2022/10/06 07:48:39;;;;;;;7.63;2.90;;;16.90;1.00;;;;;;5114153;28;20883;-55
2022/10/06 07:51:16;;;;;;;9.45;2.97;;;16.90;1.00;;;;;;5113175;28;20368;-56
2022/10/06 07:53:49;;;;;;;6.00;2.33;;;17.00;1.00;;;;;;5113825;28;20915;-55
2022/10/06 07:56:19;;;;;;;6.82;2.60;;;16.90;99.90;;;;;;5113398;28;20411;-55
2022/10/06 07:58:45;;;;;;;6.97;2.78;;;16.90;99.90;;;;;;5113691;28;20857;-55
2022/10/06 08:01:13;;;;;;;10.30;3.40;;;17.00;99.90;;;;;;5112714;28;20376;-55
2022/10/06 08:03:40;;;;;;;9.35;2.60;;;17.10;99.90;;;;;;5113430;28;20387;-56
2022/10/06 08:06:14;;;;;;;8.00;2.38;;;17.10;99.90;;;;;;5112813;28;20381;-56
2022/10/06 08:08:41;;;;;;;9.48;2.72;;;16.80;99.90;;;;;;5113339;28;20787;-57
2022/10/06 08:11:07;;;;;;;8.30;3.30;;;16.80;99.90;;;;;;5112898;28;20461;-57
2022/10/06 08:13:38;;;;;;;9.15;2.78;;;16.90;99.90;;;;;;5107947;28;20385;-57
2022/10/06 08:16:09;;;;;;;7.43;2.40;;;17.00;99.90;;;;;;5092147;28;20413;-57
2022/10/06 08:18:35;;;;;;;6.60;2.60;;;17.20;99.90;;;;;;5092891;28;20777;-57
2022/10/06 08:21:09;;;;;;;7.90;2.58;;;17.20;99.90;;;;;;5091855;28;20374;-57
2022/10/06 08:23:39;;;;;;;7.97;2.38;;;17.30;87.30;;;;;;5092661;28;20496;-58
2022/10/06 08:26:05;;;;;;;9.13;2.40;;;17.30;1.00;;;;;;5091837;28;20374;-57
2022/10/06 08:28:31;;;;;;;8.07;2.53;;;17.40;1.00;;;;;;5092843;28;20431;-58
2022/10/06 08:30:56;;;;;;;6.82;2.60;;;17.20;1.00;;;;;;5091476;28;20701;-57
2022/10/06 08:33:22;;;;;;;7.17;2.40;;;17.50;99.90;;;;;;5092805;28;20389;-58
2022/10/06 08:35:48;;;;;;;68.30;9.30;;;17.60;1.00;;;;;;5092244;28;20402;-58
2022/10/06 08:38:13;;;;;;;6.72;2.03;;;17.80;99.90;;;;;;5091620;28;20426;-57
2022/10/06 08:40:42;;;;;;;6.40;1.80;;;17.80;99.90;;;;;;5092510;28;20397;-55
2022/10/06 08:43:15;;;;;;;9.33;2.57;;;17.60;1.00;;;;;;5091395;28;20382;-57
2022/10/06 08:45:43;;;;;;;8.23;2.30;;;17.60;1.00;;;;;;5092412;28;20371;-57
2022/10/06 08:48:28;;;;;;;6.90;2.20;;;17.60;1.00;;;;;;5091284;28;21016;-57
2022/10/06 08:50:59;;;;;;;8.07;2.20;;;17.60;37.00;;;;;;5091526;28;20420;-57
2022/10/06 08:53:49;;;;;;;11.50;2.50;;;17.50;1.00;;;;;;5092398;28;20465;-58
2022/10/06 08:57:13;;;;;;;8.70;2.07;;;17.50;99.90;;;;;;5092121;28;20405;-58
2022/10/06 08:59:44;;;;;;;8.75;2.10;;;17.60;85.80;;;;;;5065089;28;20441;-58
2022/10/06 09:02:23;;;;;;;9.50;1.60;;;17.90;1.00;;;;;;5091336;28;21075;-58
2022/10/06 09:04:50;;;;;;;6.28;1.90;;;17.90;1.00;;;;;;5091711;28;20406;-58
2022/10/06 09:07:23;;;;;;;8.27;1.92;;;17.90;1.00;;;;;;5091538;28;20435;-55
2022/10/06 09:10:15;;;;;;;12.50;2.30;;;17.90;99.90;;;;;;5091740;28;20455;-57
2022/10/06 09:13:03;;;;;;;6.80;1.90;;;17.90;99.90;;;;;;5091840;28;20862;-56
2022/10/06 09:15:39;;;;;;;8.23;2.30;;;18.00;76.50;;;;;;5070783;28;20477;-56
2022/10/06 09:18:10;;;;;;;8.90;2.00;;;18.00;1.00;;;;;;5070912;28;20383;-56
2022/10/06 09:20:54;;;;;;;8.80;1.90;;;17.70;1.00;;;;;;5071436;28;20391;-56
2022/10/06 09:23:46;;;;;;;6.80;1.60;;;17.70;1.00;;;;;;5071497;28;20388;-56
2022/10/06 09:26:09;;;;;;;9.73;2.00;;;17.70;1.00;;;;;;5070387;28;20843;-56
2022/10/06 09:28:36;;;;;;;7.32;1.80;;;17.90;1.00;;;;;;5071297;28;20380;-56
2022/10/06 09:31:02;;;;;;;8.63;1.67;;;17.90;99.90;;;;;;5070034;28;20418;-56
2022/10/06 09:33:37;;;;;;;8.00;1.90;;;17.90;99.90;;;;;;5070736;28;20799;-56
2022/10/06 09:36:09;;;;;;;7.35;1.75;;;18.20;99.90;;;;;;5070330;28;20525;-54
2022/10/06 09:38:54;;;;;;;6.20;1.42;;;18.40;99.90;;;;;;5053001;28;20404;-54
2022/10/06 09:41:42;;;;;;;6.63;1.60;;;18.80;1.00;;;;;;5070971;28;20532;-54
2022/10/06 09:44:26;;;;;;;9.07;1.80;;;18.90;1.00;;;;;;5069779;28;20390;-54
2022/10/06 09:46:52;;;;;;;5.60;1.40;;;19.20;1.00;;;;;;5070576;28;20388;-54
2022/10/06 09:49:21;;;;;;;6.17;1.40;;;19.30;99.90;;;;;;5070906;28;20380;-53
2022/10/06 09:52:02;;;;;;;5.75;1.42;;;19.30;99.90;;;;;;5070884;28;20376;-54
2022/10/06 09:54:29;;;;;;;7.03;1.50;;;19.90;99.90;;;;;;5085402;28;20392;-53
2022/10/06 09:56:58;;;;;;;6.75;1.50;;;20.10;56.80;;;;;;5069873;28;20462;-54
2022/10/06 09:59:32;;;;;;;8.07;1.60;;;20.10;1.00;;;;;;5070547;28;20482;-53
2022/10/06 10:01:58;;;;;;;7.30;1.30;;;20.10;1.00;;;;;;5069651;28;20395;-54
2022/10/06 10:04:31;;;;;;;7.13;1.70;;;20.10;1.00;;;;;;5070475;28;20815;-54
2022/10/06 10:07:35;;;;;;;6.30;1.30;;;19.90;1.00;;;;;;5069564;28;20392;-54
2022/10/06 10:10:21;;;;;;;5.72;1.40;;;19.20;1.00;;;;;;4987683;28;20571;-54
2022/10/06 10:12:57;;;;;;;7.10;1.50;;;19.30;1.00;;;;;;4988493;28;20441;-53
2022/10/06 10:15:32;;;;;;;7.30;1.40;;;19.40;1.00;;;;;;5043599;28;20418;-54
2022/10/06 10:18:02;;;;;;;8.88;1.60;;;19.30;1.00;;;;;;5069626;28;20392;-54
2022/10/06 10:20:39;;;;;;;8.80;1.70;;;19.40;1.00;;;;;;5070104;28;20372;-53
2022/10/06 10:23:29;;;;;;;5.57;1.40;;;19.50;1.00;;;;;;5069491;28;20384;-53
2022/10/06 10:26:18;;;;;;;7.00;1.60;;;20.10;1.00;;;;;;5069491;28;20482;-54
2022/10/06 10:28:49;;;;;;;5.70;1.40;;;21.10;1.00;;;;;;5085814;28;20461;-53
2022/10/06 10:31:34;;;;;;;9.30;2.00;;;21.50;1.00;;;;;;5069240;28;20525;-54
2022/10/06 10:34:08;;;;;;;7.07;1.33;;;21.60;1.00;;;;;;5069412;28;20530;-56
2022/10/06 10:36:38;;;;;;;6.80;2.10;;;21.70;1.00;;;;;;5070062;28;20420;-56
2022/10/06 10:39:12;;;;;;;7.00;1.65;;;22.00;1.00;;;;;;5069480;28;20414;-56
2022/10/06 10:41:51;;;;;;;6.55;1.35;;;22.30;1.00;;;;;;5068893;28;20865;-57
2022/10/06 10:44:30;;;;;;;7.85;1.90;;;22.80;1.00;;;;;;5069550;28;20391;-56
2022/10/06 10:47:12;;;;;;;6.43;1.30;;;23.30;1.00;;;;;;5068991;28;20757;-55
2022/10/06 10:49:44;;;;;;;6.40;1.38;;;24.40;1.00;;;;;;5069976;28;20388;-54
2022/10/06 10:52:34;;;;;;;8.07;1.60;;;25.20;99.90;;;;;;5069061;28;20380;-55
2022/10/06 10:55:16;;;;;;;6.50;1.50;;;24.50;99.90;;;;;;5068887;28;20463;-55
2022/10/06 10:57:43;;;;;;;7.07;1.60;;;24.40;99.90;;;;;;5069534;28;20477;-54
2022/10/06 11:00:19;;;;;;;6.88;1.67;;;24.70;99.90;;;;;;5068870;28;20380;-54
2022/10/06 11:02:46;;;;;;;9.10;1.70;;;23.80;99.90;;;;;;5069567;28;20410;-57
2022/10/06 11:05:29;;;;;;;7.65;1.60;;;23.50;99.90;;;;;;5068151;28;20395;-60
2022/10/06 11:08:01;;;;;;;7.82;1.40;;;23.90;99.90;;;;;;5069091;28;20387;-60
2022/10/06 11:10:33;;;;;;;7.40;1.55;;;23.90;99.90;;;;;;5069715;28;20849;-60
2022/10/06 11:13:01;;;;;;;7.20;1.90;;;23.70;99.90;;;;;;5069077;28;20395;-60
2022/10/06 11:15:45;;;;;;;5.97;1.60;;;23.50;99.90;;;;;;5089868;28;20401;-60
2022/10/06 11:18:31;;;;;;;16.83;1.90;;;23.20;99.90;;;;;;5088994;28;20397;-60
2022/10/06 11:21:21;;;;;;;7.40;2.00;;;22.80;99.90;;;;;;5088915;28;20396;-60
2022/10/06 11:24:01;;;;;;;9.25;1.80;;;22.50;99.90;;;;;;5089551;28;20439;-60
2022/10/06 11:26:37;;;;;;;7.32;1.88;;;22.30;99.90;;;;;;5089495;28;20972;-60
2022/10/06 11:29:41;;;;;;;6.68;1.65;;;22.10;99.90;;;;;;5089069;28;20374;-60
2022/10/06 11:32:20;;;;;;;7.20;1.50;;;22.10;99.90;;;;;;5088776;28;20413;-62
2022/10/06 11:34:50;;;;;;;8.32;1.50;;;21.50;99.90;;;;;;5089283;28;20382;-59
2022/10/06 11:37:43;;;;;;;6.10;1.70;;;20.90;99.90;;;;;;5088730;28;20385;-57
2022/10/06 11:40:21;;;;;;;7.43;1.60;;;20.70;99.90;;;;;;5086684;28;20385;-57
2022/10/06 11:42:57;;;;;;;8.00;1.90;;;21.00;99.90;;;;;;5094048;28;20737;-57
2022/10/06 11:45:58;;;;;;;6.40;1.60;;;21.00;99.90;;;;;;5089501;28;20382;-57
2022/10/06 11:48:25;;;;;;;8.20;1.83;;;21.20;99.90;;;;;;5049618;28;20405;-58
2022/10/06 11:50:54;;;;;;;7.88;1.60;;;21.80;99.90;;;;;;5089104;28;20382;-58
2022/10/06 11:53:35;;;;;;;6.50;1.60;;;21.80;99.90;;;;;;5088731;28;20870;-58
2022/10/06 11:56:22;;;;;;;7.57;1.90;;;21.80;99.90;;;;;;5088318;28;20789;-60
2022/10/06 11:58:54;;;;;;;6.25;1.50;;;21.90;99.90;;;;;;5089304;28;20382;-59
2022/10/06 12:01:37;;;;;;;7.30;1.65;;;21.80;99.90;;;;;;5088827;28;20874;-59
2022/10/06 12:04:09;;;;;;;7.90;1.52;;;22.10;99.90;;;;;;5088428;28;20378;-60
2022/10/06 12:06:41;;;;;;;8.80;1.50;;;22.40;99.90;;;;;;5089292;28;20389;-59
2022/10/06 12:09:25;;;;;;;8.93;1.67;;;22.70;99.90;;;;;;5088857;28;20385;-59
2022/10/06 12:12:17;;;;;;;7.15;1.60;;;22.40;99.90;;;;;;5089594;28;20421;-59
2022/10/06 12:14:49;;;;;;;7.10;1.42;;;22.70;99.90;;;;;;5089345;28;20385;-59
2022/10/06 12:17:20;;;;;;;6.90;1.33;;;22.70;99.90;;;;;;5090425;28;20382;-59
2022/10/06 12:19:55;;;;;;;5.85;1.05;;;22.80;99.90;;;;;;5092893;28;20385;-59
2022/10/06 12:22:24;;;;;;;6.90;1.30;;;22.80;99.90;;;;;;5089638;28;20398;-59
2022/10/06 12:24:57;;;;;;;8.20;1.10;;;22.80;99.90;;;;;;5084425;28;20493;-60
2022/10/06 12:27:38;;;;;;;6.40;1.30;;;22.80;99.90;;;;;;5087099;28;20540;-59
2022/10/06 12:30:13;;;;;;;7.82;2.20;;;22.60;99.90;;;;;;5089675;28;20396;-60
2022/10/06 12:33:14;;;;;;;8.55;1.50;;;22.20;99.90;;;;;;5085736;28;20410;-59
2022/10/06 12:35:40;;;;;;;6.22;1.20;;;22.10;99.90;;;;;;5088526;28;20403;-59
2022/10/06 12:38:48;;;;;;;6.22;1.48;;;22.20;99.90;;;;;;5086810;28;20885;-59
2022/10/06 12:41:52;;;;;;;8.50;1.30;;;22.70;99.90;;;;;;5051828;28;20391;-59
2022/10/06 12:44:23;;;;;;;7.75;1.40;;;22.20;99.90;;;;;;5071445;28;20376;-60
2022/10/06 12:46:50;;;;;;;7.40;1.52;;;22.00;99.90;;;;;;5071959;28;20416;-59
2022/10/06 12:49:41;;;;;;;8.57;2.00;;;21.90;99.90;;;;;;5071359;28;20462;-59
2022/10/06 12:52:40;;;;;;;6.93;1.40;;;22.00;99.90;;;;;;5072060;28;20510;-59
2022/10/06 12:55:37;;;;;;;10.00;1.73;;;22.10;99.90;;;;;;5049883;28;20475;-60
2022/10/06 12:58:03;;;;;;;7.03;1.27;;;21.80;99.90;;;;;;5089860;28;20390;-60
2022/10/06 13:00:41;;;;;;;9.73;1.60;;;22.10;99.90;;;;;;5090076;28;20390;-60
2022/10/06 13:03:22;;;;;;;6.60;1.23;;;21.90;99.90;;;;;;5091532;28;20386;-59
2022/10/06 13:05:57;;;;;;;7.55;1.38;;;21.80;99.90;;;;;;5091003;28;20401;-59
2022/10/06 13:08:26;;;;;;;6.45;1.70;;;21.60;99.90;;;;;;5080351;28;20853;-59
2022/10/06 13:11:20;;;;;;;7.25;1.67;;;21.80;99.90;;;;;;5085199;28;20381;-59
2022/10/06 13:13:54;;;;;;;8.20;1.60;;;21.50;99.90;;;;;;5090432;28;20847;-59
2022/10/06 13:16:23;;;;;;;8.02;1.60;;;21.50;99.90;;;;;;5090241;28;20412;-59
2022/10/06 13:18:55;;;;;;;8.20;1.50;;;21.50;99.90;;;;;;5072549;28;20409;-59
2022/10/06 13:21:21;;;;;;;7.70;1.42;;;21.40;99.90;;;;;;5083899;28;20485;-59
2022/10/06 13:23:47;;;;;;;7.67;1.83;;;21.80;99.90;;;;;;5091022;28;20465;-59